METAR AND TAF INFORMATION
METAR FOR KSEA
KSEA 270353Z 20003KT 10SM SCT046 01/M01 A2986 RMK AO2 LTG DSNT N SLP123 T00111006
KSEA 270253Z 16006KT 10SM BKN046 02/M01 A2986 RMK AO2 SLP120 60005 T00171006 53006
KSEA 270153Z 15006KT 10SM FEW007 SCT065 SCT150 01/M01 A2984 RMK AO2 RAE27SNE27 SLP113 P0004 T00111006
KSEA 270537Z 2706/2812 30005KT P6SM FEW050
FM271200 19005KT P6SM OVC035
FM271900 19006KT P6SM -RA OVC030
FM280400 18021G22KT P6SM -RA OVC019

 AIRPORT MAP

 RUNWAY INFORMATION
Runway 16C Runway length 9426 ft Runway width 150 ft
Runway elevation 430 ft Runway displaced threshold 0 ft Runway heading 180
Runway 34C Runway length 9426 ft Runway width 150 ft
Runway elevation 363 ft Runway displaced threshold 0 ft Runway heading 0
Runway 16L Runway length 11900 ft Runway width 150 ft
Runway elevation 432 ft Runway displaced threshold 0 ft Runway heading 180
Runway 34R Runway length 11900 ft Runway width 150 ft
Runway elevation 347 ft Runway displaced threshold 0 ft Runway heading 360
Runway 16R Runway length 9426 ft Runway width 150 ft
Runway elevation 430 ft Runway displaced threshold 0 ft Runway heading 180
Runway 34L Runway length 9426 ft Runway width 150 ft
Runway elevation 363 ft Runway displaced threshold 0 ft Runway heading 360

 AIRPORT FREQUENCIES
Type A/D Name APP/DEP Frequency 119.2 MHZ
Type ATIS Name ATIS Frequency 118 MHZ
Type CLD Name CLNC DEL Frequency 128 MHZ
Type GND Name GND Frequency 121.7 MHZ
Type TWR Name TWR Frequency 119.9 MHZ
Type UNIC Name UNICOM Frequency 122.95 MHZ

 AIRPORT NEAR NAVIGATION AIDS
Type NDB Name Dondo Frequency 224 KHZ
Type VORTAC Name Seattle Frequency 116800 KHZ
Type NDB Name Parkk Frequency 281 KHZ

-